createdAt,value
2019-04-22T00:00:17.989Z,97895.86
2019-04-22T00:03:27.407Z,97895.48
2019-04-22T00:06:50.052Z,97893.09
2019-04-22T00:10:04.902Z,97893.42
2019-04-22T00:13:06.683Z,97893.19
2019-04-22T00:16:07.317Z,97887.80
2019-04-22T00:19:28.928Z,97891.02
2019-04-22T00:22:27.449Z,97885.52
2019-04-22T00:25:34.434Z,97885.88
2019-04-22T00:28:43.991Z,97885.13
2019-04-22T00:31:45.992Z,97898.81
2019-04-22T00:34:57.681Z,97891.18
2019-04-22T00:38:03.737Z,97886.75
2019-04-22T00:41:17.029Z,97887.06
2019-04-22T00:44:21.881Z,97873.94
2019-04-22T00:47:24.946Z,97878.80
2019-04-22T00:53:35.829Z,97875.41
2019-04-22T00:56:40.976Z,97869.52
2019-04-22T00:59:45.813Z,97863.64
2019-04-22T01:02:59.265Z,97866.38
2019-04-22T01:05:56.758Z,97857.36
2019-04-22T01:09:07.734Z,97861.19
2019-04-22T01:12:15.518Z,97855.59
2019-04-22T01:15:26.127Z,97854.25
2019-04-22T01:18:23.430Z,97844.36
2019-04-22T01:21:36.923Z,97848.41
2019-04-22T01:24:32.326Z,97852.71
2019-04-22T01:27:34.477Z,97844.96
2019-04-22T01:30:38.389Z,97848.73
2019-04-22T01:33:42.061Z,97840.14
2019-04-22T01:36:57.775Z,97845.78
2019-04-22T01:40:16.717Z,97831.83
2019-04-22T01:43:25.095Z,97830.14
2019-04-22T01:46:32.345Z,97830.34
2019-04-22T01:49:36.198Z,97828.85
2019-04-22T01:52:38.503Z,97822.98
2019-04-22T01:55:45.471Z,97827.04
2019-04-22T01:58:48.286Z,97816.89
2019-04-22T02:02:00.522Z,97818.44
2019-04-22T02:05:10.596Z,97811.02
2019-04-22T02:08:14.804Z,97811.38
2019-04-22T02:14:29.871Z,97810.88
2019-04-22T02:17:38.305Z,97803.59
2019-04-22T02:20:35.875Z,97796.41
2019-04-22T02:26:47.031Z,97795.44
2019-04-22T02:29:52.262Z,97789.56
2019-04-22T02:36:27.866Z,97783.76
2019-04-22T02:39:20.226Z,97782.14
2019-04-22T02:42:16.544Z,97776.52
2019-04-22T02:45:42.480Z,97775.73
2019-04-22T02:48:53.764Z,97780.03
2019-04-22T02:51:36.648Z,97780.29
2019-04-22T02:58:14.167Z,97768.81
2019-04-22T03:01:13.538Z,97762.94
2019-04-22T03:04:16.683Z,97761.88
2019-04-22T03:07:09.095Z,97765.92
2019-04-22T03:10:29.841Z,97760.28
2019-04-22T03:13:38.258Z,97758.94
2019-04-22T03:22:53.711Z,97745.86
2019-04-22T03:28:54.817Z,97742.65
2019-04-22T03:38:20.232Z,97749.34
2019-04-22T03:41:39.362Z,97740.00
2019-04-22T03:47:41.505Z,97737.31
2019-04-22T03:50:36.564Z,97731.14
2019-04-22T03:54:02.784Z,97727.97
2019-04-22T04:00:25.044Z,97727.70
2019-04-22T04:03:19.087Z,97724.50
2019-04-22T04:06:17.982Z,97720.48
2019-04-22T04:09:23.936Z,97705.80
2019-04-22T04:12:28.664Z,97710.08
2019-04-22T04:15:34.376Z,97701.80
2019-04-22T04:22:00.368Z,97699.95
2019-04-22T04:25:20.997Z,97700.75
2019-04-22T04:28:31.610Z,97693.55
2019-04-22T04:34:31.137Z,97697.27
2019-04-22T04:37:42.434Z,97688.99
2019-04-22T04:43:50.328Z,97678.58
2019-04-22T04:46:51.851Z,97674.84
2019-04-22T04:53:06.341Z,97677.78
2019-04-22T04:56:17.655Z,97666.28
2019-04-22T04:59:30.712Z,97672.40
2019-04-22T05:02:22.621Z,97669.73
2019-04-22T05:08:52.580Z,97669.77
2019-04-22T05:11:49.919Z,97669.24
2019-04-22T05:14:44.641Z,97668.42
2019-04-22T05:21:04.779Z,97674.28
2019-04-22T05:24:06.662Z,97669.73
2019-04-22T05:27:05.335Z,97668.10
2019-04-22T05:33:18.982Z,97660.24
2019-04-22T05:36:20.725Z,97661.81
2019-04-22T05:39:21.526Z,97660.87
2019-04-22T05:42:28.420Z,97663.17
2019-04-22T05:45:40.339Z,97652.35
2019-04-22T05:48:51.982Z,97650.28
2019-04-22T05:51:48.138Z,97650.31
2019-04-22T05:55:05.305Z,97645.91
2019-04-22T05:58:02.827Z,97645.44
2019-04-22T06:04:19.785Z,97633.91
2019-04-22T06:07:22.048Z,97632.44
2019-04-22T06:10:39.255Z,97629.69
2019-04-22T06:13:38.937Z,97628.78
2019-04-22T06:16:50.424Z,97630.29
2019-04-22T06:19:57.658Z,97624.68
2019-04-22T06:29:19.606Z,97618.68
2019-04-22T06:35:36.273Z,97607.42
2019-04-22T06:38:40.433Z,97601.02
2019-04-22T06:41:47.916Z,97593.55
2019-04-22T06:44:51.648Z,97589.86
2019-04-22T06:51:05.147Z,97593.52
2019-04-22T06:54:07.755Z,97592.35
2019-04-22T06:57:11.622Z,97595.70
2019-04-22T07:00:24.679Z,97588.22
2019-04-22T07:09:41.424Z,97588.38
2019-04-22T07:12:48.606Z,97581.78
2019-04-22T07:16:04.000Z,97571.84
2019-04-22T07:19:01.920Z,97571.03
2019-04-22T07:25:10.147Z,97571.92
2019-04-22T07:28:15.691Z,97569.98
2019-04-22T07:31:21.096Z,97566.26
2019-04-22T07:34:36.724Z,97562.77
2019-04-22T07:44:10.287Z,97552.13
2019-04-22T07:47:04.829Z,97550.77
2019-04-22T07:50:08.402Z,97551.53
2019-04-22T07:53:10.485Z,97547.11
2019-04-22T07:56:21.409Z,97546.28
2019-04-22T07:59:30.615Z,97540.23
2019-04-22T08:02:32.815Z,97538.98
2019-04-22T08:05:46.015Z,97528.75
2019-04-22T08:08:45.979Z,97532.95
2019-04-22T08:12:04.045Z,97525.88
2019-04-22T08:14:56.453Z,97523.27
2019-04-22T08:18:17.686Z,97518.72
2019-04-22T08:21:13.695Z,97513.22
2019-04-22T08:24:18.475Z,97513.36
2019-04-22T08:27:15.271Z,97507.57
2019-04-22T08:33:35.450Z,97493.70
2019-04-22T08:37:10.259Z,97486.66
2019-04-22T08:40:07.712Z,97484.47
2019-04-22T08:42:55.270Z,97490.56
2019-04-22T08:45:56.878Z,97486.48
2019-04-22T08:49:05.652Z,97485.55
2019-04-22T08:52:16.238Z,97482.90
2019-04-22T08:55:26.243Z,97481.08
2019-04-22T08:58:28.031Z,97478.84
2019-04-22T09:04:37.126Z,97458.94
2019-04-22T09:07:48.935Z,97459.98
2019-04-22T09:10:48.993Z,97448.37
2019-04-22T09:14:08.779Z,97445.70
2019-04-22T09:17:03.795Z,97432.30
2019-04-22T09:20:18.368Z,97432.13
2019-04-22T09:23:23.657Z,97425.30
2019-04-22T09:26:24.009Z,97419.83
2019-04-22T09:29:34.130Z,97414.56
2019-04-22T09:32:38.768Z,97409.51
2019-04-22T09:35:45.017Z,97406.86
2019-04-22T09:38:48.659Z,97400.53
2019-04-22T09:41:59.767Z,97393.05
2019-04-22T09:45:10.850Z,97388.46
2019-04-22T09:48:23.703Z,97383.91
2019-04-22T09:51:26.892Z,97381.59
2019-04-22T09:54:37.010Z,97374.42
2019-04-22T09:57:37.833Z,97376.55
2019-04-22T10:00:58.085Z,97369.30
2019-04-22T10:07:08.135Z,97362.44
2019-04-22T10:10:18.832Z,97364.80
2019-04-22T10:13:19.044Z,97352.17
2019-04-22T10:19:34.982Z,97352.44
2019-04-22T10:22:39.760Z,97341.34
2019-04-22T10:29:14.097Z,97336.01
2019-04-22T10:32:05.409Z,97325.05
2019-04-22T10:35:02.265Z,97319.48
2019-04-22T10:37:58.499Z,97317.33
2019-04-22T10:41:04.772Z,97303.63
2019-04-22T10:44:10.930Z,97302.13
2019-04-22T10:47:15.969Z,97294.60
2019-04-22T10:50:23.017Z,97288.55
2019-04-22T10:53:29.170Z,97281.87
2019-04-22T10:56:34.831Z,97278.51
2019-04-22T10:59:40.719Z,97265.20
2019-04-22T11:02:55.967Z,97261.75
2019-04-22T11:06:01.254Z,97263.86
2019-04-22T11:09:10.434Z,97263.47
2019-04-22T11:12:19.249Z,97264.21
2019-04-22T11:15:22.416Z,97250.10
2019-04-22T11:18:27.458Z,97257.67
2019-04-22T11:21:31.904Z,97250.35
2019-04-22T11:24:37.036Z,97236.42
2019-04-22T11:27:44.186Z,97233.98
2019-04-22T11:30:48.289Z,97232.80
2019-04-22T11:33:54.448Z,97232.73
2019-04-22T11:36:59.117Z,97225.57
2019-04-22T11:40:15.832Z,97223.69
2019-04-22T11:43:12.372Z,97219.44
2019-04-22T11:46:17.681Z,97216.30
2019-04-22T11:49:23.631Z,97216.30
2019-04-22T11:52:28.828Z,97209.82
2019-04-22T11:55:34.894Z,97214.14
2019-04-22T11:58:39.741Z,97203.97
2019-04-22T12:01:44.696Z,97204.27
2019-04-22T12:04:49.747Z,97198.01
2019-04-22T12:07:55.246Z,97185.39
2019-04-22T12:11:02.666Z,97186.32
2019-04-22T12:14:06.321Z,97184.70
2019-04-22T12:17:11.372Z,97168.89
2019-04-22T12:20:19.770Z,97166.48
2019-04-22T12:23:25.171Z,97161.00
2019-04-22T12:26:30.680Z,97150.55
2019-04-22T12:29:35.446Z,97143.17
2019-04-22T12:32:41.164Z,97136.20
2019-04-22T12:35:46.425Z,97137.17
2019-04-22T12:38:51.428Z,97128.95
2019-04-22T12:41:56.293Z,97120.00
2019-04-22T12:45:02.319Z,97125.89
2019-04-22T12:48:08.498Z,97119.39
2019-04-22T12:51:13.694Z,97111.20
2019-04-22T12:54:19.338Z,97114.45
2019-04-22T12:57:24.892Z,97105.64
2019-04-22T13:00:30.223Z,97106.51
2019-04-22T13:03:36.130Z,97094.17
2019-04-22T13:06:42.002Z,97089.84
2019-04-22T13:09:47.372Z,97083.02
2019-04-22T13:12:53.045Z,97088.59
2019-04-22T13:15:59.304Z,97080.77
2019-04-22T13:19:07.720Z,97076.01
2019-04-22T13:22:10.417Z,97069.11
2019-04-22T13:25:17.698Z,97074.46
2019-04-22T13:28:23.033Z,97060.89
2019-04-22T13:31:28.894Z,97065.86
2019-04-22T13:34:40.399Z,97067.67
2019-04-22T13:37:41.007Z,97066.71
2019-04-22T13:41:00.644Z,97055.56
2019-04-22T13:43:51.897Z,97061.61
2019-04-22T13:47:14.504Z,97054.59
2019-04-22T13:50:52.167Z,97064.00
2019-04-22T13:53:48.111Z,97051.06
2019-04-22T13:56:38.798Z,97046.38
2019-04-22T13:59:31.236Z,97037.92
2019-04-22T14:02:28.709Z,97039.64
2019-04-22T14:05:34.954Z,97025.97
2019-04-22T14:08:40.866Z,97025.19
2019-04-22T14:11:52.878Z,97020.28
2019-04-22T14:14:52.629Z,97013.06
2019-04-22T14:17:58.762Z,97006.92
2019-04-22T14:21:04.969Z,97005.59
2019-04-22T14:24:12.529Z,97001.29
2019-04-22T14:27:27.906Z,96996.02
2019-04-22T14:30:22.657Z,96986.23
2019-04-22T14:33:27.893Z,96979.77
2019-04-22T14:36:33.084Z,96980.11
2019-04-22T14:39:38.039Z,96978.03
2019-04-22T14:43:00.602Z,96970.77
2019-04-22T14:46:15.483Z,96971.71
2019-04-22T14:49:22.279Z,96967.44
2019-04-22T14:52:22.740Z,96961.57
2019-04-22T14:55:15.676Z,96957.86
2019-04-22T14:58:17.143Z,96955.70
2019-04-22T15:01:21.828Z,96951.19
2019-04-22T15:04:26.895Z,96951.61
2019-04-22T15:07:32.935Z,96946.46
2019-04-22T15:10:38.136Z,96947.45
2019-04-22T15:13:43.393Z,96939.47
2019-04-22T15:17:00.775Z,96936.14
2019-04-22T15:20:09.868Z,96934.58
2019-04-22T15:23:14.866Z,96932.97
2019-04-22T15:26:20.334Z,96928.66
2019-04-22T15:29:25.398Z,96922.42
2019-04-22T15:32:31.484Z,96919.42
2019-04-22T15:35:37.602Z,96913.95
2019-04-22T15:38:42.372Z,96908.66
2019-04-22T15:41:57.965Z,96914.31
2019-04-22T15:44:53.869Z,96903.56
2019-04-22T15:47:59.883Z,96902.03
2019-04-22T15:51:04.818Z,96905.60
2019-04-22T15:54:09.774Z,96896.01
2019-04-22T15:57:14.907Z,96901.08
2019-04-22T16:00:33.163Z,96881.71
2019-04-22T16:03:26.951Z,96888.55
2019-04-22T16:06:31.976Z,96880.88
2019-04-22T16:09:36.771Z,96873.83
2019-04-22T16:12:52.030Z,96878.70
2019-04-22T16:15:48.838Z,96872.89
2019-04-22T16:18:54.216Z,96877.20
2019-04-22T16:22:03.960Z,96877.83
2019-04-22T16:25:11.258Z,96878.59
2019-04-22T16:28:17.455Z,96870.58
2019-04-22T16:31:22.079Z,96864.71
2019-04-22T16:34:27.272Z,96860.98
2019-04-22T16:37:32.761Z,96860.59
2019-04-22T16:40:38.751Z,96848.45
2019-04-22T16:43:44.637Z,96847.50
2019-04-22T16:46:50.030Z,96849.25
2019-04-22T16:49:55.296Z,96844.75
2019-04-22T16:52:59.995Z,96848.44
2019-04-22T16:56:04.884Z,96847.25
2019-04-22T16:59:10.623Z,96840.34
2019-04-22T17:02:32.991Z,96847.36
2019-04-22T17:05:47.220Z,96837.61
2019-04-22T17:08:52.866Z,96839.14
2019-04-22T17:11:58.083Z,96837.34
2019-04-22T17:15:08.090Z,96842.98
2019-04-22T17:18:09.586Z,96837.67
2019-04-22T17:21:14.810Z,96840.56
2019-04-22T17:24:19.602Z,96839.99
2019-04-22T17:27:24.397Z,96839.72
2019-04-22T17:30:30.919Z,96839.68
2019-04-22T17:33:36.987Z,96842.44
2019-04-22T17:36:42.366Z,96838.87
2019-04-22T17:40:04.373Z,96844.52
2019-04-22T17:43:28.484Z,96840.23
2019-04-22T17:46:29.211Z,96845.77
2019-04-22T17:49:49.882Z,96848.24
2019-04-22T17:53:07.190Z,96839.64
2019-04-22T17:56:02.134Z,96838.66
2019-04-22T17:59:02.669Z,96843.83
2019-04-22T18:02:02.825Z,96847.09
2019-04-22T18:05:01.154Z,96852.28
2019-04-22T18:11:34.041Z,96851.18
2019-04-22T18:18:01.748Z,96850.47
2019-04-22T18:20:39.481Z,96849.58
2019-04-22T18:23:43.727Z,96849.36
2019-04-22T18:26:57.646Z,96857.48
2019-04-22T18:30:02.338Z,96853.61
2019-04-22T18:33:15.819Z,96852.82
2019-04-22T18:36:17.402Z,96856.21
2019-04-22T18:39:27.206Z,96853.52
2019-04-22T18:42:25.614Z,96853.70
2019-04-22T18:45:47.246Z,96852.75
2019-04-22T18:48:46.181Z,96854.16
2019-04-22T18:52:02.873Z,96854.25
2019-04-22T18:55:07.310Z,96857.27
2019-04-22T18:58:08.908Z,96853.15
2019-04-22T19:01:03.891Z,96852.80
2019-04-22T19:04:14.214Z,96851.11
2019-04-22T19:07:44.258Z,96849.29
2019-04-22T19:10:53.788Z,96843.63
2019-04-22T19:14:03.732Z,96831.63
2019-04-22T19:17:08.247Z,96831.09
2019-04-22T19:20:09.431Z,96829.72
2019-04-22T19:23:16.415Z,96835.02
2019-04-22T19:26:23.294Z,96837.77
2019-04-22T19:29:20.351Z,96837.23
2019-04-22T19:32:25.298Z,96831.25
2019-04-22T19:35:29.928Z,96839.41
2019-04-22T19:38:28.650Z,96839.72
2019-04-22T19:41:52.014Z,96837.66
2019-04-22T19:44:54.772Z,96831.52
2019-04-22T19:48:06.566Z,96837.99
2019-04-22T19:51:12.869Z,96839.41
2019-04-22T19:54:15.823Z,96833.25
2019-04-22T19:57:20.318Z,96831.63
2019-04-22T20:00:38.783Z,96831.91
2019-04-22T20:03:57.887Z,96831.42
2019-04-22T20:06:59.342Z,96824.31
2019-04-22T20:10:08.863Z,96823.17
2019-04-22T20:13:15.150Z,96823.27
2019-04-22T20:16:06.219Z,96823.20
2019-04-22T20:19:32.007Z,96822.99
2019-04-22T20:22:30.212Z,96818.97
2019-04-22T20:25:34.949Z,96811.75
2019-04-22T20:28:43.073Z,96816.14
2019-04-22T20:31:54.509Z,96806.33
2019-04-22T20:35:02.985Z,96805.88
2019-04-22T20:38:04.159Z,96806.76
2019-04-22T20:41:05.679Z,96800.69
2019-04-22T20:44:16.351Z,96797.97
2019-04-22T20:47:20.668Z,96793.89
2019-04-22T20:50:31.477Z,96792.39
2019-04-22T20:53:39.767Z,96796.64
2019-04-22T20:56:36.811Z,96791.81
2019-04-22T20:59:48.121Z,96792.20
2019-04-22T21:02:46.948Z,96782.77
2019-04-22T21:05:53.003Z,96785.03
2019-04-22T21:09:15.539Z,96783.14
2019-04-22T21:12:09.027Z,96787.45
2019-04-22T21:15:26.279Z,96773.74
2019-04-22T21:18:26.583Z,96778.81
2019-04-22T21:21:38.552Z,96773.02
2019-04-22T21:24:34.780Z,96773.74
2019-04-22T21:30:48.130Z,96775.03
2019-04-22T21:33:59.432Z,96767.21
2019-04-22T21:37:07.558Z,96770.94
2019-04-22T21:40:10.737Z,96770.56
2019-04-22T21:43:19.736Z,96762.30
2019-04-22T21:46:23.151Z,96759.52
2019-04-22T21:49:29.813Z,96753.17
2019-04-22T21:52:35.865Z,96749.80
2019-04-22T21:55:43.591Z,96755.86
2019-04-22T21:58:54.566Z,96741.69
2019-04-22T22:02:07.198Z,96745.14
2019-04-22T22:05:00.057Z,96745.94
2019-04-22T22:08:21.580Z,96732.11
2019-04-22T22:11:22.818Z,96727.34
2019-04-22T22:14:22.471Z,96725.61
2019-04-22T22:17:31.634Z,96733.16
2019-04-22T22:20:45.253Z,96725.64
2019-04-22T22:23:44.037Z,96721.97
2019-04-22T22:26:55.562Z,96719.14
2019-04-22T22:30:06.648Z,96715.39
2019-04-22T22:33:05.717Z,96717.91
2019-04-22T22:36:05.148Z,96714.80
2019-04-22T22:39:11.434Z,96712.73
2019-04-22T22:42:03.737Z,96708.19
2019-04-22T22:45:19.990Z,96709.06
2019-04-22T22:48:41.295Z,96714.28
2019-04-22T22:54:53.117Z,96711.13
2019-04-22T22:57:58.507Z,96716.34
2019-04-22T23:00:57.993Z,96707.83
2019-04-22T23:04:09.884Z,96707.03
2019-04-22T23:07:17.251Z,96697.71
2019-04-22T23:10:17.536Z,96694.66
2019-04-22T23:13:29.744Z,96693.14
2019-04-22T23:16:22.247Z,96685.80
2019-04-22T23:19:19.901Z,96680.88
2019-04-22T23:22:34.297Z,96689.38
2019-04-22T23:26:03.840Z,96681.73
2019-04-22T23:29:07.210Z,96677.11
2019-04-22T23:32:08.822Z,96676.66
2019-04-22T23:35:36.594Z,96681.61
2019-04-22T23:38:50.803Z,96678.39
2019-04-22T23:42:00.373Z,96681.10
2019-04-22T23:45:07.408Z,96672.23
2019-04-22T23:48:04.614Z,96673.81
2019-04-22T23:51:16.689Z,96671.39
2019-04-22T23:54:27.117Z,96663.37
2019-04-22T23:57:34.277Z,96654.94
